Bagdad, Arizona
Current Conditions -  °F | °C
As of 3:53 PM on Friday 24 Oct 2014 (Local Time) from KPRC Reporting Station
Clear Clear  
Wind Chill: 79°   Ceiling: Unl
Heat Index: 79°   Visibility: 10mi
Dew Point: 36°   Wind: 5mph
Humidity: 21%   Direction: 180°S
Pressure: 30.2"   Gusts: NA
Location:  34.58°N, 113.17°W
Report Text: KPRC 242253Z 18004KT 10SM CLR 26/02 A3020 RMK AO2 SLP164 T02610022
Loading
Personal Weather Stations






























Interactive Weather Map New forecast layout! Learn more

10-Day Weather Forecast

Advertisements
Track Severe Weather on mobile